Time;durP1;ratioP1;P1;durP2;ratioP2;P2;SDS_P1;SDS_P2;PMS_P1;PMS_P2;Temp;Humidity;BMP_temperature;BMP_pressure;BME280_temperature;BME280_humidity;BME280_pressure;Samples;Min_cycle;Max_cycle;Signal;HPM_P1;HPM_P2
2022/12/29 00:01:31;;;;;;;0.00;0.00;;;;;;;6.64;63.26;95278.06;4339957;32;20189;-61
2022/12/29 00:03:57;;;;;;;0.13;0.13;;;;;;;6.48;64.16;95276.50;4339594;32;20384;-61
2022/12/29 00:06:23;;;;;;;0.10;0.10;;;;;;;6.48;63.76;95272.03;4335488;32;20301;-62
2022/12/29 00:08:49;;;;;;;0.10;0.10;;;;;;;6.50;63.25;95272.53;4332649;32;20268;-62
2022/12/29 00:11:22;;;;;;;0.33;0.33;;;;;;;6.57;63.01;95267.00;4321314;32;20313;-61
2022/12/29 00:16:34;;;;;;;0.17;0.17;;;;;;;6.72;62.24;95264.31;4334008;32;20305;-62
2022/12/29 00:19:00;;;;;;;0.00;0.00;;;;;;;6.64;62.75;95267.50;4334687;32;20278;-61
2022/12/29 00:35:26;;;;;;;0.30;0.30;;;;;;;6.67;63.75;95248.50;4336950;32;20372;-61
2022/12/29 00:46:03;;;;;;;0.07;0.07;;;;;;;6.64;61.38;95250.91;4325991;33;20405;-62
2022/12/29 00:51:12;;;;;;;0.30;0.20;;;;;;;6.69;62.10;95245.59;4331613;33;20208;-62
2022/12/29 00:53:38;;;;;;;0.20;0.20;;;;;;;6.72;61.68;95245.84;4328874;33;20286;-62
2022/12/29 00:56:03;;;;;;;0.00;0.00;;;;;;;6.83;61.05;95247.41;4327378;33;20221;-62
2022/12/29 00:58:30;;;;;;;0.10;0.10;;;;;;;6.86;60.71;95244.19;4330092;33;20190;-62
2022/12/29 01:01:21;;;;;;;0.40;0.40;;;;;;;6.75;61.15;95245.31;4328936;33;20189;-61
2022/12/29 01:03:47;;;;;;;0.10;0.10;;;;;;;6.64;62.16;95246.44;4309290;33;20290;-61
2022/12/29 01:06:12;;;;;;;0.37;0.37;;;;;;;6.75;61.27;95244.53;4321700;33;20297;-61
2022/12/29 01:08:38;;;;;;;2.23;0.27;;;;;;;6.59;62.14;95249.06;4324001;33;20208;-62
2022/12/29 01:11:10;;;;;;;0.20;0.20;;;;;;;6.60;61.87;95242.75;4325564;33;20257;-62
2022/12/29 01:13:38;;;;;;;0.33;0.33;;;;;;;6.66;61.57;95254.81;4337479;32;20194;-61
2022/12/29 01:16:04;;;;;;;0.27;0.27;;;;;;;6.66;61.74;95249.56;4341205;32;20285;-62
2022/12/29 01:18:29;;;;;;;0.13;0.13;;;;;;;6.62;61.18;95248.53;4351321;32;20433;-61
2022/12/29 01:21:04;;;;;;;0.00;0.00;;;;;;;6.68;61.50;95247.44;4326470;32;20289;-62
2022/12/29 01:23:31;;;;;;;0.10;0.10;;;;;;;6.57;61.42;95260.94;4339377;32;20199;-61
2022/12/29 01:25:57;;;;;;;0.60;0.60;;;;;;;6.53;61.44;95255.41;4328685;32;21442;-61
2022/12/29 01:28:23;;;;;;;0.00;0.00;;;;;;;6.56;61.42;95257.53;4332871;32;20274;-61
2022/12/29 01:30:48;;;;;;;0.00;0.00;;;;;;;6.47;61.68;95256.47;4344406;32;20198;-62
2022/12/29 01:33:14;;;;;;;0.03;0.03;;;;;;;6.54;61.50;95259.63;4340235;32;20259;-61
2022/12/29 01:35:39;;;;;;;0.10;0.10;;;;;;;6.65;60.91;95250.63;4333794;32;20207;-61
2022/12/29 01:38:04;;;;;;;0.10;0.10;;;;;;;6.69;60.96;95264.03;4338076;32;20225;-61
2022/12/29 01:40:30;;;;;;;0.00;0.00;;;;;;;6.47;61.75;95264.38;4328556;32;20254;-61
2022/12/29 01:42:55;;;;;;;0.00;0.00;;;;;;;6.53;61.13;95261.47;4341782;32;20207;-62
2022/12/29 01:45:21;;;;;;;0.13;0.13;;;;;;;6.42;61.98;95261.78;4335533;32;20186;-61
2022/12/29 01:47:52;;;;;;;0.10;0.10;;;;;;;6.43;61.84;95260.72;4337538;32;20200;-62
2022/12/29 01:50:26;;;;;;;0.10;0.10;;;;;;;6.37;61.98;95259.94;4322110;33;20242;-62
2022/12/29 01:53:15;;;;;;;0.00;0.00;;;;;;;6.49;61.42;95259.63;4333164;33;20292;-62
2022/12/29 01:55:44;;;;;;;0.00;0.00;;;;;;;6.49;61.67;95262.28;4323277;33;20303;-62
2022/12/29 01:58:13;;;;;;;0.00;0.00;;;;;;;6.58;61.68;95255.41;4308848;33;20370;-61
2022/12/29 02:00:38;;;;;;;0.63;0.20;;;;;;;6.53;61.35;95258.06;4329069;33;20295;-61
2022/12/29 02:03:05;;;;;;;0.40;0.40;;;;;;;6.48;61.34;95261.47;4327209;33;20340;-62
2022/12/29 02:05:52;;;;;;;0.00;0.00;;;;;;;6.34;61.66;95252.56;4345395;32;20190;-62
2022/12/29 02:08:20;;;;;;;0.10;0.10;;;;;;;6.32;61.46;95248.62;4347146;32;20301;-61
2022/12/29 02:10:46;;;;;;;0.00;0.00;;;;;;;6.39;61.45;95247.31;4348173;32;20328;-62
2022/12/29 02:13:16;;;;;;;0.10;0.10;;;;;;;6.57;60.71;95245.13;4331614;32;20303;-62
2022/12/29 02:15:50;;;;;;;0.30;0.30;;;;;;;6.57;60.87;95240.66;4327942;32;20294;-62
2022/12/29 02:18:50;;;;;;;0.20;0.20;;;;;;;6.58;60.55;95244.87;4338484;32;20289;-62
2022/12/29 02:21:39;;;;;;;0.33;0.33;;;;;;;6.51;60.71;95239.09;4320950;32;20285;-62
2022/12/29 02:24:18;;;;;;;0.33;0.33;;;;;;;6.62;60.84;95232.72;4342067;32;20281;-61
2022/12/29 02:27:08;;;;;;;0.10;0.10;;;;;;;6.69;60.33;95241.12;4341977;32;20293;-62
2022/12/29 02:30:01;;;;;;;0.00;0.00;;;;;;;6.66;59.95;95246.91;4326059;33;20290;-62
2022/12/29 02:33:05;;;;;;;0.10;0.10;;;;;;;6.81;60.10;95246.88;4325386;32;20405;-62
2022/12/29 02:35:41;;;;;;;0.10;0.10;;;;;;;6.81;59.33;95246.88;4316781;32;20303;-62
2022/12/29 02:38:41;;;;;;;0.00;0.00;;;;;;;6.72;59.86;95248.47;4355450;32;20293;-62
2022/12/29 02:41:23;;;;;;;0.70;0.37;;;;;;;6.76;59.63;95246.88;4342392;32;20348;-62
2022/12/29 02:44:13;;;;;;;0.10;0.10;;;;;;;6.74;59.93;95235.81;4337530;32;20294;-61
2022/12/29 02:46:52;;;;;;;0.00;0.00;;;;;;;6.81;59.18;95241.59;4319032;33;20290;-62
2022/12/29 02:49:34;;;;;;;0.30;0.20;;;;;;;6.81;59.42;95236.34;4338827;32;20331;-62
2022/12/29 02:52:18;;;;;;;0.23;0.23;;;;;;;6.83;59.02;95236.06;4320041;32;20283;-62
2022/12/29 02:54:43;;;;;;;0.20;0.20;;;;;;;6.89;57.81;95238.37;4311392;33;20334;-62
2022/12/29 02:57:27;;;;;;;0.00;0.00;;;;;;;6.97;57.25;95242.31;4325805;33;20338;-62
2022/12/29 02:59:59;;;;;;;0.20;0.20;;;;;;;6.87;57.61;95229.16;4339933;32;20193;-62
2022/12/29 03:02:49;;;;;;;0.57;0.57;;;;;;;6.96;57.10;95227.53;4342621;32;20296;-62
2022/12/29 03:05:42;;;;;;;0.20;0.20;;;;;;;6.84;58.05;95219.97;4339799;32;20301;-61
2022/12/29 03:08:44;;;;;;;0.20;0.20;;;;;;;6.82;57.52;95227.38;4339529;32;20290;-62
2022/12/29 03:17:00;;;;;;;0.10;0.10;;;;;;;6.88;57.41;95214.91;4340228;32;20363;-62
2022/12/29 03:19:28;;;;;;;0.17;0.03;;;;;;;6.92;57.04;95209.91;4336833;32;20290;-62
2022/12/29 03:24:43;;;;;;;0.10;0.10;;;;;;;7.01;56.69;95197.72;4340288;32;20304;-62
2022/12/29 03:27:13;;;;;;;0.00;0.00;;;;;;;7.07;55.64;95199.25;4341271;32;20325;-62
2022/12/29 03:29:47;;;;;;;0.10;0.10;;;;;;;7.12;56.12;95193.94;4322950;32;20309;-62
2022/12/29 03:32:14;;;;;;;0.00;0.00;;;;;;;7.10;56.33;95191.56;4338487;32;20364;-62
2022/12/29 03:34:40;;;;;;;0.30;0.30;;;;;;;7.14;56.43;95189.97;4340311;32;20290;-62
2022/12/29 03:37:12;;;;;;;0.00;0.00;;;;;;;7.26;56.29;95194.91;4336281;32;20295;-62
2022/12/29 03:39:37;;;;;;;0.00;0.00;;;;;;;7.22;56.11;95199.97;4339339;32;20208;-62
2022/12/29 03:42:09;;;;;;;0.20;0.10;;;;;;;7.20;55.59;95193.38;4327983;32;20279;-62
2022/12/29 03:44:41;;;;;;;0.03;0.03;;;;;;;7.37;55.58;95185.84;4313497;33;20209;-62
2022/12/29 03:47:07;;;;;;;0.10;0.10;;;;;;;7.38;55.35;95195.34;4322801;32;20303;-62
2022/12/29 03:49:33;;;;;;;0.00;0.00;;;;;;;7.40;55.43;95184.53;4310835;33;20302;-62
2022/12/29 03:51:59;;;;;;;0.00;0.00;;;;;;;7.39;55.79;95189.00;4320821;33;20282;-62
2022/12/29 03:54:24;;;;;;;0.10;0.10;;;;;;;7.24;55.39;95194.41;4316953;33;20255;-62
2022/12/29 03:56:50;;;;;;;0.20;0.20;;;;;;;7.42;54.83;95193.75;4317449;32;20189;-62
2022/12/29 03:59:15;;;;;;;0.10;0.10;;;;;;;7.46;55.71;95189.50;4339496;32;20211;-61
2022/12/29 04:01:40;;;;;;;0.10;0.10;;;;;;;7.44;55.49;95182.91;4326272;32;20209;-62
2022/12/29 04:04:06;;;;;;;0.20;0.20;;;;;;;7.57;54.04;95190.19;4328354;32;20201;-62
2022/12/29 04:06:31;;;;;;;0.27;0.27;;;;;;;7.62;53.66;95176.94;4339365;32;20193;-62
2022/12/29 04:08:56;;;;;;;0.00;0.00;;;;;;;7.65;53.83;95180.88;4355354;32;20264;-61
2022/12/29 04:11:22;;;;;;;0.00;0.00;;;;;;;7.63;54.45;95188.28;4339626;32;20186;-62
2022/12/29 04:13:48;;;;;;;0.00;0.00;;;;;;;7.76;53.71;95185.78;4322239;32;20215;-62
2022/12/29 04:16:13;;;;;;;0.03;0.03;;;;;;;7.73;53.55;95182.91;4337807;32;20204;-62
2022/12/29 04:18:39;;;;;;;0.10;0.10;;;;;;;7.72;53.19;95182.13;4318525;32;20189;-62
2022/12/29 04:21:05;;;;;;;0.10;0.10;;;;;;;7.72;53.88;95176.03;4337925;32;20225;-62
2022/12/29 04:23:32;;;;;;;0.03;0.03;;;;;;;7.84;53.86;95184.41;4321052;33;20196;-62
2022/12/29 04:25:58;;;;;;;0.00;0.00;;;;;;;7.78;53.73;95182.88;4319327;32;20392;-61
2022/12/29 04:28:24;;;;;;;0.00;0.00;;;;;;;7.98;52.87;95198.50;4326134;32;20305;-62
2022/12/29 04:30:49;;;;;;;2.07;0.30;;;;;;;7.90;53.06;95189.31;4338400;32;20264;-62
2022/12/29 04:33:15;;;;;;;0.07;0.07;;;;;;;7.80;53.01;95184.16;4326824;32;20248;-62
2022/12/29 04:35:41;;;;;;;0.00;0.00;;;;;;;7.83;53.33;95177.53;4336746;32;20186;-62
2022/12/29 04:38:06;;;;;;;0.40;0.20;;;;;;;7.92;53.53;95183.78;4327464;33;20193;-62
2022/12/29 04:40:31;;;;;;;0.20;0.20;;;;;;;7.96;52.97;95171.59;4322704;33;20354;-62
2022/12/29 04:42:57;;;;;;;0.00;0.00;;;;;;;7.84;53.20;95176.47;4320229;33;20328;-62
2022/12/29 04:45:22;;;;;;;0.20;0.10;;;;;;;7.94;53.23;95179.00;4330031;32;20241;-61
2022/12/29 04:47:47;;;;;;;0.10;0.10;;;;;;;7.90;53.40;95172.69;4335435;32;20193;-62
2022/12/29 04:50:13;;;;;;;0.10;0.10;;;;;;;7.91;53.07;95179.56;4319545;32;20190;-62
2022/12/29 04:52:38;;;;;;;0.10;0.10;;;;;;;7.79;53.18;95171.22;4333211;32;20244;-62
2022/12/29 04:55:05;;;;;;;0.00;0.00;;;;;;;7.83;53.11;95166.97;4337321;32;20248;-61
2022/12/29 04:57:30;;;;;;;0.20;0.20;;;;;;;7.79;53.27;95168.59;4334907;32;20224;-62
2022/12/29 04:59:55;;;;;;;0.00;0.00;;;;;;;7.85;53.64;95167.50;4329223;32;20286;-62
2022/12/29 05:02:21;;;;;;;0.03;0.03;;;;;;;7.75;54.12;95163.06;4333323;32;20212;-62
2022/12/29 05:04:46;;;;;;;1.07;0.37;;;;;;;7.87;53.52;95165.34;4353581;32;20196;-61
2022/12/29 05:07:12;;;;;;;0.00;0.00;;;;;;;7.97;53.14;95175.81;4323629;32;20194;-62
2022/12/29 05:09:38;;;;;;;0.00;0.00;;;;;;;7.99;53.15;95173.69;4339187;32;20253;-62
2022/12/29 05:12:03;;;;;;;0.00;0.00;;;;;;;8.09;52.72;95173.59;4329843;33;20208;-61
2022/12/29 05:14:29;;;;;;;0.33;0.33;;;;;;;8.00;53.15;95177.09;4325211;32;20193;-61
2022/12/29 05:16:54;;;;;;;0.00;0.00;;;;;;;8.09;52.62;95178.06;4325593;33;20256;-62
2022/12/29 05:19:19;;;;;;;0.23;0.13;;;;;;;8.20;52.36;95167.09;4345758;32;20201;-62
2022/12/29 05:21:45;;;;;;;0.20;0.20;;;;;;;8.07;53.21;95174.94;4334314;32;20197;-62
2022/12/29 05:24:10;;;;;;;0.00;0.00;;;;;;;8.09;53.61;95178.88;4305236;33;20285;-62
2022/12/29 05:26:35;;;;;;;0.40;0.40;;;;;;;8.03;53.56;95182.63;4327095;33;20204;-61
2022/12/29 05:29:01;;;;;;;0.83;0.40;;;;;;;8.02;54.23;95183.69;4338970;32;20208;-61
2022/12/29 05:31:26;;;;;;;0.20;0.20;;;;;;;8.02;54.73;95182.91;4340731;32;20197;-61
2022/12/29 05:33:52;;;;;;;0.00;0.00;;;;;;;8.01;54.60;95189.25;4338824;32;20291;-62
2022/12/29 05:36:18;;;;;;;0.63;0.60;;;;;;;7.85;55.07;95181.47;4339195;32;20185;-62
2022/12/29 05:38:43;;;;;;;0.10;0.10;;;;;;;7.96;54.19;95187.44;4321190;32;20186;-62
2022/12/29 05:41:08;;;;;;;0.47;0.47;;;;;;;7.77;54.25;95178.66;4319525;32;20193;-62
2022/12/29 05:43:34;;;;;;;0.00;0.00;;;;;;;7.80;54.81;95172.81;4324528;33;20197;-62
2022/12/29 05:45:59;;;;;;;0.00;0.00;;;;;;;7.90;55.10;95175.34;4329328;32;20204;-62
2022/12/29 05:48:25;;;;;;;0.70;0.23;;;;;;;7.87;55.45;95179.34;4342551;32;20243;-62
2022/12/29 05:50:51;;;;;;;0.63;0.37;;;;;;;7.86;54.21;95177.78;4341440;32;20193;-62
2022/12/29 05:53:17;;;;;;;0.17;0.17;;;;;;;7.89;54.74;95185.16;4343311;32;20194;-62
2022/12/29 05:55:43;;;;;;;0.30;0.30;;;;;;;7.97;55.15;95177.66;4342214;32;20337;-61
2022/12/29 05:58:09;;;;;;;0.07;0.07;;;;;;;7.96;54.78;95176.87;4318850;32;20189;-61
2022/12/29 06:00:34;;;;;;;0.30;0.30;;;;;;;7.96;54.64;95176.87;4344361;32;20411;-62
2022/12/29 06:03:00;;;;;;;0.10;0.10;;;;;;;7.81;54.94;95179.66;4324937;32;20236;-62
2022/12/29 06:05:25;;;;;;;0.37;0.37;;;;;;;7.82;55.85;95178.59;4328248;32;20189;-61
2022/12/29 06:07:50;;;;;;;0.20;0.20;;;;;;;7.78;55.74;95170.44;4340911;32;20204;-62
2022/12/29 06:10:16;;;;;;;0.20;0.20;;;;;;;7.74;55.39;95172.06;4341806;32;20193;-62
2022/12/29 06:12:41;;;;;;;0.03;0.03;;;;;;;7.75;55.29;95180.78;4341646;32;20194;-62
2022/12/29 06:15:07;;;;;;;0.00;0.00;;;;;;;7.84;55.48;95179.13;4343395;32;20200;-61
2022/12/29 06:17:32;;;;;;;0.03;0.03;;;;;;;7.79;54.85;95173.88;4318272;33;20201;-62
2022/12/29 06:19:58;;;;;;;0.37;0.37;;;;;;;7.78;55.42;95173.09;4350893;32;20189;-62
2022/12/29 06:22:23;;;;;;;0.10;0.10;;;;;;;7.80;55.90;95172.81;4334417;32;20297;-62
2022/12/29 06:24:49;;;;;;;0.60;0.40;;;;;;;7.79;55.53;95171.22;4326550;32;20241;-62
2022/12/29 06:27:14;;;;;;;0.10;0.10;;;;;;;7.89;56.06;95174.59;4339740;32;20225;-61
2022/12/29 06:29:40;;;;;;;0.00;0.00;;;;;;;7.87;55.12;95182.00;4341809;32;20200;-62
2022/12/29 06:32:06;;;;;;;0.10;0.10;;;;;;;7.75;55.37;95175.50;4330184;32;20238;-61
2022/12/29 06:34:31;;;;;;;0.20;0.20;;;;;;;7.76;54.92;95187.62;4323187;33;20278;-61
2022/12/29 06:36:58;;;;;;;0.33;0.33;;;;;;;7.89;54.92;95182.50;4338947;32;20504;-61
2022/12/29 06:39:24;;;;;;;0.20;0.20;;;;;;;7.75;55.19;95176.28;4328102;32;20198;-61
2022/12/29 06:41:52;;;;;;;0.53;0.53;;;;;;;7.76;56.70;95187.62;4316653;33;20293;-61
2022/12/29 06:44:17;;;;;;;0.00;0.00;;;;;;;7.83;56.66;95185.47;4316805;32;20209;-62
2022/12/29 06:46:42;;;;;;;0.07;0.07;;;;;;;7.90;55.55;95186.69;4330595;32;20310;-61
2022/12/29 06:49:08;;;;;;;0.00;0.00;;;;;;;7.87;55.68;95184.63;4321634;33;20201;-61
2022/12/29 06:51:33;;;;;;;0.10;0.10;;;;;;;7.71;55.36;95180.53;4331751;32;20197;-61
2022/12/29 06:53:58;;;;;;;0.20;0.20;;;;;;;7.84;54.97;95179.13;4327372;32;20201;-61
2022/12/29 06:56:24;;;;;;;0.00;0.00;;;;;;;7.97;54.70;95180.28;4339718;32;20212;-62
2022/12/29 06:58:49;;;;;;;0.10;0.10;;;;;;;7.91;54.85;95184.84;4322015;33;20194;-61
2022/12/29 07:01:14;;;;;;;0.27;0.27;;;;;;;7.95;55.61;95185.84;4331852;32;20233;-61
2022/12/29 07:03:42;;;;;;;0.10;0.10;;;;;;;7.91;56.56;95190.91;4340880;32;20251;-61
2022/12/29 07:06:07;;;;;;;0.50;0.37;;;;;;;7.94;55.39;95193.00;4341717;32;20185;-62
2022/12/29 07:08:32;;;;;;;0.00;0.00;;;;;;;7.78;55.13;95194.22;4343009;32;20304;-61
2022/12/29 07:10:58;;;;;;;0.20;0.20;;;;;;;7.78;55.77;95190.78;4326617;32;20224;-62
2022/12/29 07:13:23;;;;;;;0.30;0.30;;;;;;;7.76;55.68;95195.56;4326858;32;20193;-61
2022/12/29 07:15:48;;;;;;;0.20;0.20;;;;;;;7.84;55.17;95194.97;4327189;32;20201;-61
2022/12/29 07:18:14;;;;;;;0.20;0.20;;;;;;;7.85;54.85;95201.81;4341773;32;20231;-61
2022/12/29 07:20:39;;;;;;;0.23;0.23;;;;;;;8.01;54.72;95205.88;4347565;32;20197;-61
2022/12/29 07:23:04;;;;;;;0.23;0.23;;;;;;;7.99;54.47;95210.66;4330954;32;20193;-62
2022/12/29 07:25:30;;;;;;;0.07;0.07;;;;;;;8.04;54.26;95213.25;4341785;32;20234;-62
2022/12/29 07:27:55;;;;;;;0.00;0.00;;;;;;;8.12;53.87;95219.75;4325281;32;20240;-61
2022/12/29 07:30:20;;;;;;;0.30;0.30;;;;;;;8.07;54.38;95212.69;4337498;32;20227;-61
2022/12/29 07:32:46;;;;;;;0.47;0.30;;;;;;;7.95;54.92;95217.56;4333401;32;20200;-61
2022/12/29 07:35:11;;;;;;;0.10;0.10;;;;;;;7.88;55.06;95219.75;4324633;32;20292;-62
2022/12/29 07:37:36;;;;;;;0.10;0.10;;;;;;;7.97;54.54;95212.78;4324895;32;20228;-61
2022/12/29 07:40:03;;;;;;;0.07;0.07;;;;;;;7.90;54.66;95228.16;4309072;33;20224;-61
2022/12/29 07:42:28;;;;;;;0.10;0.10;;;;;;;7.84;54.81;95224.00;4330238;32;20280;-61
2022/12/29 07:44:54;;;;;;;0.37;0.37;;;;;;;7.80;55.29;95215.84;4324441;33;20321;-61
2022/12/29 07:47:19;;;;;;;0.10;0.10;;;;;;;7.81;55.14;95224.56;4325150;32;20194;-61
2022/12/29 07:49:44;;;;;;;0.10;0.10;;;;;;;7.89;55.17;95223.97;4340618;32;20255;-61
2022/12/29 07:52:10;;;;;;;0.20;0.20;;;;;;;7.98;54.30;95224.13;4326976;32;20239;-61
2022/12/29 07:54:35;;;;;;;0.00;0.00;;;;;;;7.97;54.99;95226.00;4343209;32;20312;-61
2022/12/29 07:57:00;;;;;;;0.20;0.20;;;;;;;7.96;54.33;95219.12;4335278;32;20211;-61
2022/12/29 07:59:26;;;;;;;0.03;0.03;;;;;;;8.01;53.79;95224.38;4325577;33;20193;-61
2022/12/29 08:01:51;;;;;;;4.37;0.47;;;;;;;8.09;53.61;95229.06;4325595;32;20269;-61
2022/12/29 08:04:17;;;;;;;0.20;0.20;;;;;;;8.03;53.91;95232.03;4324980;33;20190;-61
2022/12/29 08:06:43;;;;;;;0.20;0.20;;;;;;;7.99;54.37;95231.78;4326215;33;20186;-61
2022/12/29 08:09:08;;;;;;;0.00;0.00;;;;;;;8.02;54.13;95235.72;4332778;32;20185;-61
2022/12/29 08:11:34;;;;;;;0.20;0.20;;;;;;;8.14;53.25;95225.56;4339545;32;20195;-61
2022/12/29 08:13:59;;;;;;;0.10;0.10;;;;;;;8.04;54.30;95237.03;4312957;33;20201;-61
2022/12/29 08:16:24;;;;;;;0.00;0.00;;;;;;;8.19;53.13;95231.59;4325528;33;20225;-61
2022/12/29 08:18:50;;;;;;;0.00;0.00;;;;;;;8.28;52.38;95227.28;4314619;32;20220;-61
2022/12/29 08:21:15;;;;;;;0.20;0.20;;;;;;;8.26;52.42;95233.91;4325246;32;20236;-61
2022/12/29 08:23:40;;;;;;;0.33;0.33;;;;;;;8.22;54.62;95236.31;4329480;32;20186;-61
2022/12/29 08:26:06;;;;;;;0.50;0.50;;;;;;;8.25;52.81;95240.25;4320769;32;20240;-61
2022/12/29 08:28:32;;;;;;;0.03;0.03;;;;;;;8.22;52.94;95238.97;4331957;32;20207;-61
2022/12/29 08:31:00;;;;;;;0.10;0.10;;;;;;;8.28;52.13;95234.41;4333624;32;20286;-61
2022/12/29 08:33:26;;;;;;;0.27;0.27;;;;;;;8.28;52.75;95232.56;4338706;32;20325;-61
2022/12/29 08:35:51;;;;;;;0.03;0.03;;;;;;;8.34;52.17;95230.66;4335505;32;20286;-61
2022/12/29 08:38:17;;;;;;;0.20;0.20;;;;;;;8.38;53.17;95229.03;4324702;32;20321;-61
2022/12/29 08:40:43;;;;;;;0.23;0.23;;;;;;;8.28;53.53;95231.78;4320504;32;20257;-61
2022/12/29 08:43:09;;;;;;;0.40;0.40;;;;;;;8.34;52.74;95230.66;4338166;32;20196;-61
2022/12/29 08:45:34;;;;;;;0.23;0.23;;;;;;;8.42;52.38;95230.06;4339348;32;20181;-61
2022/12/29 08:48:00;;;;;;;0.87;0.73;;;;;;;8.54;51.76;95232.28;4332285;32;20194;-61
2022/12/29 08:50:25;;;;;;;0.37;0.37;;;;;;;8.59;51.68;95234.88;4334966;32;20224;-61
2022/12/29 08:52:51;;;;;;;0.50;0.50;;;;;;;8.73;51.31;95237.63;4325632;32;20185;-61
2022/12/29 08:55:16;;;;;;;0.13;0.13;;;;;;;8.87;51.60;95234.00;4322281;32;20231;-61
2022/12/29 08:57:41;;;;;;;0.30;0.30;;;;;;;8.91;52.55;95236.87;4339149;32;20204;-61
2022/12/29 09:00:07;;;;;;;0.20;0.20;;;;;;;8.96;50.36;95232.28;4336960;32;20193;-61
2022/12/29 09:02:33;;;;;;;0.43;0.20;;;;;;;8.91;52.82;95242.97;4331690;32;20186;-61
2022/12/29 09:04:58;;;;;;;0.03;0.03;;;;;;;8.93;52.84;95240.81;4330207;32;20207;-61
2022/12/29 09:07:24;;;;;;;0.27;0.27;;;;;;;8.94;51.78;95234.44;4340844;32;20219;-61
2022/12/29 09:09:52;;;;;;;0.10;0.10;;;;;;;9.00;50.54;95237.81;4341958;32;20193;-61
2022/12/29 09:12:18;;;;;;;0.20;0.20;;;;;;;9.07;50.16;95248.03;4338557;32;20200;-61
2022/12/29 09:14:45;;;;;;;0.97;0.97;;;;;;;9.14;50.08;95249.28;4334593;32;20185;-61
2022/12/29 09:19:57;;;;;;;0.10;0.10;;;;;;;9.19;50.89;95251.03;4335116;32;20293;-61
2022/12/29 09:22:22;;;;;;;0.60;0.60;;;;;;;9.30;50.10;95249.84;4337315;32;20268;-62
2022/12/29 09:24:48;;;;;;;0.20;0.20;;;;;;;9.20;52.01;95252.63;4323868;32;20186;-61
2022/12/29 09:27:13;;;;;;;0.23;0.23;;;;;;;9.26;50.42;95262.06;4336334;32;20208;-62
2022/12/29 09:29:38;;;;;;;0.20;0.20;;;;;;;9.14;51.70;95262.50;4319771;32;20209;-62
2022/12/29 09:32:07;;;;;;;0.23;0.23;;;;;;;9.15;51.73;95263.25;4339596;32;20213;-61
2022/12/29 09:34:32;;;;;;;0.00;0.00;;;;;;;9.21;51.00;95264.78;4324881;33;20212;-62
2022/12/29 09:36:58;;;;;;;0.30;0.30;;;;;;;9.41;54.22;95259.19;4339221;32;20276;-62
2022/12/29 09:39:23;;;;;;;0.30;0.30;;;;;;;9.51;52.54;95266.22;4310919;33;20236;-62
2022/12/29 09:42:32;;;;;;;0.33;0.33;;;;;;;9.53;52.88;95256.91;4326582;33;20186;-62
2022/12/29 09:45:18;;;;;;;0.27;0.23;;;;;;;9.68;51.87;95255.09;4338556;32;22931;-62
2022/12/29 09:47:46;;;;;;;0.10;0.10;;;;;;;9.71;51.14;95250.03;4343936;32;20212;-62
2022/12/29 09:50:17;;;;;;;0.37;0.37;;;;;;;9.82;49.89;95243.47;4334334;32;20220;-61
2022/12/29 09:52:56;;;;;;;0.33;0.10;;;;;;;9.76;48.92;95239.34;4335678;32;20193;-62
2022/12/29 09:55:29;;;;;;;0.10;0.10;;;;;;;9.81;48.97;95238.47;4334368;32;20205;-62
2022/12/29 09:58:05;;;;;;;0.30;0.30;;;;;;;9.90;49.18;95239.38;4330187;32;20216;-62
2022/12/29 10:00:44;;;;;;;0.17;0.17;;;;;;;9.93;48.55;95233.50;4335396;32;20197;-62
2022/12/29 10:03:17;;;;;;;0.00;0.00;;;;;;;9.85;49.24;95234.16;4326173;32;20193;-62
2022/12/29 10:05:51;;;;;;;0.17;0.17;;;;;;;9.80;49.32;95234.25;4340737;32;20243;-62
2022/12/29 10:08:35;;;;;;;0.10;0.10;;;;;;;9.90;48.52;95229.56;4341238;32;20198;-62
2022/12/29 10:11:34;;;;;;;0.30;0.30;;;;;;;9.91;49.04;95219.75;4328585;32;20219;-62
2022/12/29 10:14:21;;;;;;;0.40;0.40;;;;;;;9.73;49.53;95213.44;4338482;32;20235;-62
2022/12/29 10:16:59;;;;;;;0.20;0.20;;;;;;;9.78;48.72;95215.19;4342676;32;20203;-62
2022/12/29 10:19:57;;;;;;;0.10;0.10;;;;;;;9.90;48.19;95211.03;4349846;32;20197;-62
2022/12/29 10:22:47;;;;;;;0.20;0.20;;;;;;;10.09;47.50;95210.97;4313893;32;20253;-62
2022/12/29 10:25:18;;;;;;;0.00;0.00;;;;;;;9.96;49.59;95201.13;4332344;32;20224;-62
2022/12/29 10:27:47;;;;;;;0.53;0.37;;;;;;;10.00;48.37;95207.41;4333573;32;20229;-62
2022/12/29 10:30:14;;;;;;;1.13;0.40;;;;;;;9.89;47.48;95208.66;4336606;32;20197;-62
2022/12/29 10:32:45;;;;;;;0.37;0.20;;;;;;;9.94;48.01;95211.22;4340664;32;20193;-62
2022/12/29 10:35:19;;;;;;;0.40;0.40;;;;;;;9.96;47.85;95211.72;4341139;32;20199;-62
2022/12/29 10:38:29;;;;;;;0.23;0.23;;;;;;;9.99;48.24;95219.88;4322563;32;20185;-62
2022/12/29 10:41:05;;;;;;;0.10;0.10;;;;;;;10.08;47.86;95219.19;4263074;33;20270;-62
2022/12/29 10:43:42;;;;;;;0.20;0.20;;;;;;;10.02;48.53;95215.06;4295728;33;20268;-62
2022/12/29 10:46:14;;;;;;;0.17;0.17;;;;;;;10.07;47.97;95214.97;4321741;32;20193;-62
2022/12/29 10:48:40;;;;;;;0.30;0.30;;;;;;;10.25;48.35;95209.63;4321333;32;20235;-62
2022/12/29 10:51:08;;;;;;;0.07;0.07;;;;;;;10.17;48.17;95210.28;4342878;32;20190;-62
2022/12/29 10:53:50;;;;;;;0.37;0.37;;;;;;;10.10;49.04;95199.28;4341170;32;20190;-62
2022/12/29 10:56:35;;;;;;;0.17;0.17;;;;;;;10.19;47.68;95199.41;4327002;32;20247;-62
2022/12/29 10:59:22;;;;;;;0.00;0.00;;;;;;;10.11;48.19;95194.78;4340570;32;20185;-62
2022/12/29 11:02:11;;;;;;;0.63;0.20;;;;;;;10.19;48.68;95192.25;4324554;32;20227;-62
2022/12/29 11:04:42;;;;;;;1.00;1.00;;;;;;;10.26;48.09;95186.56;4294321;33;20202;-62
2022/12/29 11:07:08;;;;;;;0.20;0.20;;;;;;;10.23;48.95;95179.97;4325156;33;20209;-61
2022/12/29 11:09:36;;;;;;;0.40;0.40;;;;;;;10.25;47.98;95180.47;4325737;32;20193;-61
2022/12/29 11:12:18;;;;;;;0.10;0.10;;;;;;;10.29;48.10;95168.19;4311232;33;20235;-61
2022/12/29 11:14:43;;;;;;;0.10;0.10;;;;;;;10.36;46.94;95177.63;4314536;33;20190;-61
2022/12/29 11:17:15;;;;;;;0.30;0.30;;;;;;;10.38;47.30;95170.97;4323883;33;20219;-61
2022/12/29 11:19:41;;;;;;;0.20;0.20;;;;;;;10.39;46.61;95175.19;4325193;32;20193;-61
2022/12/29 11:22:21;;;;;;;0.17;0.17;;;;;;;10.49;46.38;95167.00;4314136;33;20193;-61
2022/12/29 11:24:49;;;;;;;0.20;0.20;;;;;;;10.59;46.04;95160.72;4325756;33;20252;-61
2022/12/29 11:27:25;;;;;;;0.10;0.10;;;;;;;10.63;45.99;95164.34;4324712;33;20193;-61
2022/12/29 11:29:53;;;;;;;0.10;0.10;;;;;;;10.67;46.07;95154.72;4330352;32;20201;-61
2022/12/29 11:32:24;;;;;;;0.40;0.40;;;;;;;10.68;46.75;95158.94;4340239;32;20197;-62
2022/12/29 11:34:50;;;;;;;0.23;0.23;;;;;;;10.70;45.29;95154.13;4341331;32;20198;-61
2022/12/29 11:37:19;;;;;;;0.23;0.23;;;;;;;10.81;47.62;95142.19;4325328;32;20177;-61
2022/12/29 11:40:18;;;;;;;0.23;0.23;;;;;;;10.84;46.26;95143.47;4322317;33;20193;-61
2022/12/29 11:42:55;;;;;;;0.00;0.00;;;;;;;10.79;46.02;95147.03;4311149;33;20191;-62
2022/12/29 11:45:34;;;;;;;0.43;0.40;;;;;;;10.86;45.95;95139.44;4317142;32;20232;-61
2022/12/29 11:48:06;;;;;;;0.40;0.40;;;;;;;10.84;45.34;95140.81;4339350;32;20201;-61
2022/12/29 11:50:35;;;;;;;0.17;0.17;;;;;;;10.86;45.86;95155.34;4319795;33;20208;-61
2022/12/29 11:53:26;;;;;;;0.33;0.33;;;;;;;10.80;45.83;95140.66;4312182;33;20220;-62
2022/12/29 11:55:52;;;;;;;0.10;0.10;;;;;;;10.87;45.26;95145.53;4322328;32;20244;-61
2022/12/29 11:58:17;;;;;;;0.67;0.67;;;;;;;10.93;44.96;95142.47;4340066;32;20193;-61
2022/12/29 12:00:45;;;;;;;0.70;0.53;;;;;;;10.96;45.07;95139.22;4341054;32;20189;-61
2022/12/29 12:03:16;;;;;;;0.40;0.40;;;;;;;10.97;45.02;95146.09;4342470;32;20219;-61
2022/12/29 12:05:55;;;;;;;0.20;0.20;;;;;;;11.04;44.25;95145.66;4340731;32;20204;-61
2022/12/29 12:08:30;;;;;;;0.03;0.03;;;;;;;10.95;44.36;95147.47;4317378;32;20185;-61
2022/12/29 12:11:23;;;;;;;0.30;0.30;;;;;;;10.90;44.44;95140.41;4339765;32;20193;-61
2022/12/29 12:14:10;;;;;;;0.83;0.57;;;;;;;10.93;44.22;95139.03;4338201;32;20194;-61
2022/12/29 12:17:18;;;;;;;0.97;0.53;;;;;;;10.94;44.35;95140.59;4339546;32;20197;-61
2022/12/29 12:19:49;;;;;;;0.30;0.30;;;;;;;11.00;43.54;95134.88;4260099;33;20206;-61
2022/12/29 12:22:38;;;;;;;0.20;0.20;;;;;;;11.02;43.89;95134.56;4279505;33;20201;-61
2022/12/29 12:25:18;;;;;;;0.67;0.67;;;;;;;11.09;44.62;95129.63;4289381;33;20205;-61
2022/12/29 12:28:13;;;;;;;0.27;0.27;;;;;;;11.07;44.05;95117.75;4321885;33;20190;-61
2022/12/29 12:30:47;;;;;;;0.10;0.10;;;;;;;11.08;44.20;95114.78;4307974;33;20197;-62
2022/12/29 12:33:21;;;;;;;0.10;0.10;;;;;;;11.18;43.60;95109.25;4313664;32;20201;-61
2022/12/29 12:36:15;;;;;;;0.10;0.10;;;;;;;11.23;44.38;95106.44;4315897;32;20239;-61